sensor_id;sensor_type;location;lat;lon;timestamp;temperature;humidity
23681;DHT22;62915;50.832;4.462;2022-11-15T00:00:50;12.40;99.90
23681;DHT22;62915;50.832;4.462;2022-11-15T00:03:18;12.50;99.90
23681;DHT22;62915;50.832;4.462;2022-11-15T00:05:45;12.60;99.90
23681;DHT22;62915;50.832;4.462;2022-11-15T00:08:11;12.50;99.90
23681;DHT22;62915;50.832;4.462;2022-11-15T00:10:37;12.40;99.90
23681;DHT22;62915;50.832;4.462;2022-11-15T00:13:11;12.40;99.90
23681;DHT22;62915;50.832;4.462;2022-11-15T00:15:38;12.50;99.90
23681;DHT22;62915;50.832;4.462;2022-11-15T00:18:05;12.60;99.90
23681;DHT22;62915;50.832;4.462;2022-11-15T00:20:33;12.70;99.90
23681;DHT22;62915;50.832;4.462;2022-11-15T00:22:59;12.70;99.90
23681;DHT22;62915;50.832;4.462;2022-11-15T00:25:25;12.80;99.90
23681;DHT22;62915;50.832;4.462;2022-11-15T00:27:55;12.60;99.90
23681;DHT22;62915;50.832;4.462;2022-11-15T00:30:23;12.60;99.90
23681;DHT22;62915;50.832;4.462;2022-11-15T00:32:49;12.80;99.90
23681;DHT22;62915;50.832;4.462;2022-11-15T00:35:14;12.70;99.90
23681;DHT22;62915;50.832;4.462;2022-11-15T00:37:40;12.70;99.90
23681;DHT22;62915;50.832;4.462;2022-11-15T00:40:07;12.60;99.90
23681;DHT22;62915;50.832;4.462;2022-11-15T00:42:33;12.70;99.90
23681;DHT22;62915;50.832;4.462;2022-11-15T00:44:58;12.70;99.90
23681;DHT22;62915;50.832;4.462;2022-11-15T00:47:24;12.70;99.90
23681;DHT22;62915;50.832;4.462;2022-11-15T00:49:50;12.70;99.90
23681;DHT22;62915;50.832;4.462;2022-11-15T00:52:15;12.70;99.90
23681;DHT22;62915;50.832;4.462;2022-11-15T00:54:41;12.80;99.90
23681;DHT22;62915;50.832;4.462;2022-11-15T00:57:07;12.80;99.90
23681;DHT22;62915;50.832;4.462;2022-11-15T00:59:33;12.80;99.90
23681;DHT22;62915;50.832;4.462;2022-11-15T01:01:58;12.70;99.90
23681;DHT22;62915;50.832;4.462;2022-11-15T01:04:24;12.70;99.90
23681;DHT22;62915;50.832;4.462;2022-11-15T01:06:50;12.80;99.90
23681;DHT22;62915;50.832;4.462;2022-11-15T01:09:16;12.80;99.90
23681;DHT22;62915;50.832;4.462;2022-11-15T01:11:41;12.80;99.90
23681;DHT22;62915;50.832;4.462;2022-11-15T01:14:07;12.80;99.90
23681;DHT22;62915;50.832;4.462;2022-11-15T01:16:33;12.80;99.90
23681;DHT22;62915;50.832;4.462;2022-11-15T01:18:59;12.80;99.90
23681;DHT22;62915;50.832;4.462;2022-11-15T01:21:25;12.70;99.90
23681;DHT22;62915;50.832;4.462;2022-11-15T01:23:55;12.70;99.90
23681;DHT22;62915;50.832;4.462;2022-11-15T01:26:22;12.70;99.90
23681;DHT22;62915;50.832;4.462;2022-11-15T01:28:48;12.70;99.90
23681;DHT22;62915;50.832;4.462;2022-11-15T01:31:22;12.70;99.90
23681;DHT22;62915;50.832;4.462;2022-11-15T01:33:48;12.80;99.90
23681;DHT22;62915;50.832;4.462;2022-11-15T01:36:19;12.80;99.90
23681;DHT22;62915;50.832;4.462;2022-11-15T01:38:53;12.90;99.90
23681;DHT22;62915;50.832;4.462;2022-11-15T01:41:24;12.80;99.90
23681;DHT22;62915;50.832;4.462;2022-11-15T01:44:25;12.80;99.90
23681;DHT22;62915;50.832;4.462;2022-11-15T01:46:47;12.90;99.90
23681;DHT22;62915;50.832;4.462;2022-11-15T01:49:20;12.90;99.90
23681;DHT22;62915;50.832;4.462;2022-11-15T01:51:46;12.80;99.90
23681;DHT22;62915;50.832;4.462;2022-11-15T01:54:15;12.90;99.90
23681;DHT22;62915;50.832;4.462;2022-11-15T01:56:50;12.90;99.90
23681;DHT22;62915;50.832;4.462;2022-11-15T01:59:18;12.90;99.90
23681;DHT22;62915;50.832;4.462;2022-11-15T02:01:45;12.90;99.90
23681;DHT22;62915;50.832;4.462;2022-11-15T02:04:15;13.00;99.90
23681;DHT22;62915;50.832;4.462;2022-11-15T02:06:43;12.90;99.90
23681;DHT22;62915;50.832;4.462;2022-11-15T02:09:10;12.90;99.90
23681;DHT22;62915;50.832;4.462;2022-11-15T02:11:36;12.90;99.90
23681;DHT22;62915;50.832;4.462;2022-11-15T02:14:03;13.00;99.90
23681;DHT22;62915;50.832;4.462;2022-11-15T02:36:34;13.10;99.90
23681;DHT22;62915;50.832;4.462;2022-11-15T02:39:14;13.00;99.90
23681;DHT22;62915;50.832;4.462;2022-11-15T02:41:53;13.00;99.90
23681;DHT22;62915;50.832;4.462;2022-11-15T02:44:40;13.00;99.90
23681;DHT22;62915;50.832;4.462;2022-11-15T02:47:12;13.00;99.90
23681;DHT22;62915;50.832;4.462;2022-11-15T02:49:49;13.00;99.90
23681;DHT22;62915;50.832;4.462;2022-11-15T02:52:16;13.00;99.90
23681;DHT22;62915;50.832;4.462;2022-11-15T02:54:43;12.90;99.90
23681;DHT22;62915;50.832;4.462;2022-11-15T02:57:16;12.90;99.90
23681;DHT22;62915;50.832;4.462;2022-11-15T03:00:01;12.90;99.90
23681;DHT22;62915;50.832;4.462;2022-11-15T03:02:37;12.90;99.90
23681;DHT22;62915;50.832;4.462;2022-11-15T03:16:32;12.80;99.90
23681;DHT22;62915;50.832;4.462;2022-11-15T03:19:07;13.00;99.90
23681;DHT22;62915;50.832;4.462;2022-11-15T03:21:36;13.00;99.90
23681;DHT22;62915;50.832;4.462;2022-11-15T03:24:05;13.00;99.90
23681;DHT22;62915;50.832;4.462;2022-11-15T03:26:33;13.10;99.90
23681;DHT22;62915;50.832;4.462;2022-11-15T03:29:22;13.10;99.90
23681;DHT22;62915;50.832;4.462;2022-11-15T03:31:52;13.10;99.90
23681;DHT22;62915;50.832;4.462;2022-11-15T03:34:29;13.00;99.90
23681;DHT22;62915;50.832;4.462;2022-11-15T03:36:55;13.00;99.90
23681;DHT22;62915;50.832;4.462;2022-11-15T03:39:22;13.00;99.90
23681;DHT22;62915;50.832;4.462;2022-11-15T03:47:07;12.70;99.90
23681;DHT22;62915;50.832;4.462;2022-11-15T03:49:36;12.70;99.90
23681;DHT22;62915;50.832;4.462;2022-11-15T03:52:04;12.60;99.90
23681;DHT22;62915;50.832;4.462;2022-11-15T03:54:30;12.70;99.90
23681;DHT22;62915;50.832;4.462;2022-11-15T03:56:56;12.70;99.90
23681;DHT22;62915;50.832;4.462;2022-11-15T03:59:22;12.70;99.90
23681;DHT22;62915;50.832;4.462;2022-11-15T04:01:48;12.70;99.90
23681;DHT22;62915;50.832;4.462;2022-11-15T04:04:13;12.80;99.90
23681;DHT22;62915;50.832;4.462;2022-11-15T04:06:39;12.80;99.90
23681;DHT22;62915;50.832;4.462;2022-11-15T04:09:05;12.80;99.90
23681;DHT22;62915;50.832;4.462;2022-11-15T04:11:31;12.80;99.90
23681;DHT22;62915;50.832;4.462;2022-11-15T04:13:56;12.70;99.90
23681;DHT22;62915;50.832;4.462;2022-11-15T04:16:22;12.70;99.90
23681;DHT22;62915;50.832;4.462;2022-11-15T04:18:47;12.70;99.90
23681;DHT22;62915;50.832;4.462;2022-11-15T04:21:33;12.60;99.90
23681;DHT22;62915;50.832;4.462;2022-11-15T04:24:17;12.70;99.90
23681;DHT22;62915;50.832;4.462;2022-11-15T04:26:43;12.70;99.90
23681;DHT22;62915;50.832;4.462;2022-11-15T04:29:08;12.70;99.90
23681;DHT22;62915;50.832;4.462;2022-11-15T04:31:53;12.80;99.90
23681;DHT22;62915;50.832;4.462;2022-11-15T04:34:18;12.70;99.90
23681;DHT22;62915;50.832;4.462;2022-11-15T04:36:44;12.70;99.90
23681;DHT22;62915;50.832;4.462;2022-11-15T04:39:28;12.80;99.90
23681;DHT22;62915;50.832;4.462;2022-11-15T04:41:53;12.80;99.90
23681;DHT22;62915;50.832;4.462;2022-11-15T04:44:19;12.70;99.90
23681;DHT22;62915;50.832;4.462;2022-11-15T04:46:45;12.70;99.90
23681;DHT22;62915;50.832;4.462;2022-11-15T04:49:10;12.60;99.90
23681;DHT22;62915;50.832;4.462;2022-11-15T04:51:36;12.30;99.90
23681;DHT22;62915;50.832;4.462;2022-11-15T04:54:02;12.20;99.90
23681;DHT22;62915;50.832;4.462;2022-11-15T04:56:27;12.20;99.90
23681;DHT22;62915;50.832;4.462;2022-11-15T04:58:53;12.20;99.90
23681;DHT22;62915;50.832;4.462;2022-11-15T05:01:19;12.20;99.90
23681;DHT22;62915;50.832;4.462;2022-11-15T05:03:45;12.20;99.90
23681;DHT22;62915;50.832;4.462;2022-11-15T05:06:29;12.20;99.90
23681;DHT22;62915;50.832;4.462;2022-11-15T05:08:55;12.10;99.90
23681;DHT22;62915;50.832;4.462;2022-11-15T05:11:21;12.20;99.90
23681;DHT22;62915;50.832;4.462;2022-11-15T05:13:47;12.20;99.90
23681;DHT22;62915;50.832;4.462;2022-11-15T05:16:13;12.20;99.90
23681;DHT22;62915;50.832;4.462;2022-11-15T05:18:39;12.20;99.90
23681;DHT22;62915;50.832;4.462;2022-11-15T05:21:10;12.10;99.90
23681;DHT22;62915;50.832;4.462;2022-11-15T05:23:36;12.10;99.90
23681;DHT22;62915;50.832;4.462;2022-11-15T05:26:03;12.00;99.90
23681;DHT22;62915;50.832;4.462;2022-11-15T05:28:30;12.00;99.90
23681;DHT22;62915;50.832;4.462;2022-11-15T05:31:07;12.10;99.90
23681;DHT22;62915;50.832;4.462;2022-11-15T05:33:34;12.10;99.90
23681;DHT22;62915;50.832;4.462;2022-11-15T05:36:12;12.10;99.90
23681;DHT22;62915;50.832;4.462;2022-11-15T05:38:38;12.10;99.90
23681;DHT22;62915;50.832;4.462;2022-11-15T05:41:05;12.20;99.90
23681;DHT22;62915;50.832;4.462;2022-11-15T05:43:33;12.10;99.90
23681;DHT22;62915;50.832;4.462;2022-11-15T05:46:02;11.90;99.90
23681;DHT22;62915;50.832;4.462;2022-11-15T05:48:28;12.00;99.90
23681;DHT22;62915;50.832;4.462;2022-11-15T05:50:55;11.90;99.90
23681;DHT22;62915;50.832;4.462;2022-11-15T05:53:23;11.90;99.90
23681;DHT22;62915;50.832;4.462;2022-11-15T05:55:50;12.00;99.90
23681;DHT22;62915;50.832;4.462;2022-11-15T05:58:17;12.00;99.90
23681;DHT22;62915;50.832;4.462;2022-11-15T06:00:43;12.00;99.90
23681;DHT22;62915;50.832;4.462;2022-11-15T06:03:09;11.80;99.90
23681;DHT22;62915;50.832;4.462;2022-11-15T06:05:35;11.90;99.90
23681;DHT22;62915;50.832;4.462;2022-11-15T06:08:01;11.90;99.90
23681;DHT22;62915;50.832;4.462;2022-11-15T06:10:27;11.70;99.90
23681;DHT22;62915;50.832;4.462;2022-11-15T06:13:11;11.70;99.90
23681;DHT22;62915;50.832;4.462;2022-11-15T06:15:36;11.80;99.90
23681;DHT22;62915;50.832;4.462;2022-11-15T06:18:03;11.70;99.90
23681;DHT22;62915;50.832;4.462;2022-11-15T06:20:29;11.80;99.90
23681;DHT22;62915;50.832;4.462;2022-11-15T06:22:59;11.70;99.90
23681;DHT22;62915;50.832;4.462;2022-11-15T06:25:26;11.70;99.90
23681;DHT22;62915;50.832;4.462;2022-11-15T06:27:53;11.80;99.90
23681;DHT22;62915;50.832;4.462;2022-11-15T06:30:20;11.70;99.90
23681;DHT22;62915;50.832;4.462;2022-11-15T06:32:46;11.70;99.90
23681;DHT22;62915;50.832;4.462;2022-11-15T06:35:13;11.60;99.90
23681;DHT22;62915;50.832;4.462;2022-11-15T06:37:40;11.60;99.90
23681;DHT22;62915;50.832;4.462;2022-11-15T06:40:07;11.50;99.90
23681;DHT22;62915;50.832;4.462;2022-11-15T06:42:42;11.50;99.90
23681;DHT22;62915;50.832;4.462;2022-11-15T06:45:08;11.40;99.90
23681;DHT22;62915;50.832;4.462;2022-11-15T06:47:33;11.40;99.90
23681;DHT22;62915;50.832;4.462;2022-11-15T06:49:59;11.40;99.90
23681;DHT22;62915;50.832;4.462;2022-11-15T06:52:28;11.40;99.90
23681;DHT22;62915;50.832;4.462;2022-11-15T06:54:58;11.30;99.90
23681;DHT22;62915;50.832;4.462;2022-11-15T06:57:24;11.30;99.90
23681;DHT22;62915;50.832;4.462;2022-11-15T06:59:49;11.30;99.90
23681;DHT22;62915;50.832;4.462;2022-11-15T07:02:15;11.20;99.90
23681;DHT22;62915;50.832;4.462;2022-11-15T07:04:41;11.20;99.90
23681;DHT22;62915;50.832;4.462;2022-11-15T07:07:07;11.10;99.90
23681;DHT22;62915;50.832;4.462;2022-11-15T07:09:34;11.10;99.90
23681;DHT22;62915;50.832;4.462;2022-11-15T07:12:02;11.10;99.90
23681;DHT22;62915;50.832;4.462;2022-11-15T07:14:29;11.20;99.90
23681;DHT22;62915;50.832;4.462;2022-11-15T07:16:55;11.20;99.90
23681;DHT22;62915;50.832;4.462;2022-11-15T07:19:21;11.10;99.90
23681;DHT22;62915;50.832;4.462;2022-11-15T07:21:46;11.20;99.90
23681;DHT22;62915;50.832;4.462;2022-11-15T07:24:14;11.30;99.90
23681;DHT22;62915;50.832;4.462;2022-11-15T07:26:39;11.30;99.90
23681;DHT22;62915;50.832;4.462;2022-11-15T07:29:06;11.30;99.90
23681;DHT22;62915;50.832;4.462;2022-11-15T07:31:31;11.30;99.90
23681;DHT22;62915;50.832;4.462;2022-11-15T07:33:57;11.10;99.90
23681;DHT22;62915;50.832;4.462;2022-11-15T07:36:23;11.10;99.90
23681;DHT22;62915;50.832;4.462;2022-11-15T07:38:49;11.10;99.90
23681;DHT22;62915;50.832;4.462;2022-11-15T07:41:14;11.00;99.90
23681;DHT22;62915;50.832;4.462;2022-11-15T07:43:40;11.10;99.90
23681;DHT22;62915;50.832;4.462;2022-11-15T07:46:07;11.10;99.90
23681;DHT22;62915;50.832;4.462;2022-11-15T07:48:38;11.10;99.90
23681;DHT22;62915;50.832;4.462;2022-11-15T07:51:06;11.00;99.90
23681;DHT22;62915;50.832;4.462;2022-11-15T07:53:32;11.00;99.90
23681;DHT22;62915;50.832;4.462;2022-11-15T07:55:58;11.10;99.90
23681;DHT22;62915;50.832;4.462;2022-11-15T07:58:24;11.10;99.90
23681;DHT22;62915;50.832;4.462;2022-11-15T08:00:49;11.10;99.90
23681;DHT22;62915;50.832;4.462;2022-11-15T08:03:16;11.10;99.90
23681;DHT22;62915;50.832;4.462;2022-11-15T08:05:43;11.20;99.90
23681;DHT22;62915;50.832;4.462;2022-11-15T08:08:11;11.20;99.90
23681;DHT22;62915;50.832;4.462;2022-11-15T08:10:37;11.10;99.90
23681;DHT22;62915;50.832;4.462;2022-11-15T08:13:08;11.10;99.90
23681;DHT22;62915;50.832;4.462;2022-11-15T08:15:35;11.20;99.90
23681;DHT22;62915;50.832;4.462;2022-11-15T08:18:08;11.20;99.90
23681;DHT22;62915;50.832;4.462;2022-11-15T08:20:35;11.30;99.90
23681;DHT22;62915;50.832;4.462;2022-11-15T08:23:18;11.30;99.90
23681;DHT22;62915;50.832;4.462;2022-11-15T08:25:44;11.30;99.90
23681;DHT22;62915;50.832;4.462;2022-11-15T08:28:10;11.40;99.90
23681;DHT22;62915;50.832;4.462;2022-11-15T08:30:38;11.40;99.90
23681;DHT22;62915;50.832;4.462;2022-11-15T08:33:25;11.30;99.90
23681;DHT22;62915;50.832;4.462;2022-11-15T08:35:51;11.30;99.90
23681;DHT22;62915;50.832;4.462;2022-11-15T08:38:17;11.50;99.90
23681;DHT22;62915;50.832;4.462;2022-11-15T08:40:43;11.50;99.90
23681;DHT22;62915;50.832;4.462;2022-11-15T08:43:09;11.50;99.90
23681;DHT22;62915;50.832;4.462;2022-11-15T08:45:35;11.50;99.90
23681;DHT22;62915;50.832;4.462;2022-11-15T08:48:02;11.50;99.90
23681;DHT22;62915;50.832;4.462;2022-11-15T08:50:28;11.40;99.90
23681;DHT22;62915;50.832;4.462;2022-11-15T08:52:53;11.50;99.90
23681;DHT22;62915;50.832;4.462;2022-11-15T08:55:19;11.40;99.90
23681;DHT22;62915;50.832;4.462;2022-11-15T08:57:45;11.40;99.90
23681;DHT22;62915;50.832;4.462;2022-11-15T09:00:11;11.50;99.90
23681;DHT22;62915;50.832;4.462;2022-11-15T09:02:41;11.40;99.90
23681;DHT22;62915;50.832;4.462;2022-11-15T09:05:07;11.60;99.90
23681;DHT22;62915;50.832;4.462;2022-11-15T09:07:33;11.70;99.90
23681;DHT22;62915;50.832;4.462;2022-11-15T09:09:59;11.90;99.90
23681;DHT22;62915;50.832;4.462;2022-11-15T09:12:24;12.10;99.90
23681;DHT22;62915;50.832;4.462;2022-11-15T09:14:51;12.50;99.90
23681;DHT22;62915;50.832;4.462;2022-11-15T09:17:16;12.80;99.90
23681;DHT22;62915;50.832;4.462;2022-11-15T09:19:42;13.20;99.90
23681;DHT22;62915;50.832;4.462;2022-11-15T09:22:08;13.30;99.90
23681;DHT22;62915;50.832;4.462;2022-11-15T09:24:34;13.60;99.90
23681;DHT22;62915;50.832;4.462;2022-11-15T09:27:00;13.90;99.90
23681;DHT22;62915;50.832;4.462;2022-11-15T09:29:26;14.10;99.90
23681;DHT22;62915;50.832;4.462;2022-11-15T09:31:52;14.20;99.90
23681;DHT22;62915;50.832;4.462;2022-11-15T09:34:18;14.30;99.90
23681;DHT22;62915;50.832;4.462;2022-11-15T09:36:44;14.60;99.90
23681;DHT22;62915;50.832;4.462;2022-11-15T09:39:10;14.70;99.90
23681;DHT22;62915;50.832;4.462;2022-11-15T09:49:34;16.00;99.90
23681;DHT22;62915;50.832;4.462;2022-11-15T09:52:01;16.40;99.90
23681;DHT22;62915;50.832;4.462;2022-11-15T09:54:45;16.80;99.90
23681;DHT22;62915;50.832;4.462;2022-11-15T09:57:12;16.60;99.90
23681;DHT22;62915;50.832;4.462;2022-11-15T10:00:02;16.40;99.90
23681;DHT22;62915;50.832;4.462;2022-11-15T10:05:22;16.00;99.90
23681;DHT22;62915;50.832;4.462;2022-11-15T10:11:13;15.60;99.90
23681;DHT22;62915;50.832;4.462;2022-11-15T10:13:42;15.80;99.90
23681;DHT22;62915;50.832;4.462;2022-11-15T10:24:26;15.70;99.90
23681;DHT22;62915;50.832;4.462;2022-11-15T10:26:55;15.50;99.90
23681;DHT22;62915;50.832;4.462;2022-11-15T10:29:23;15.30;99.90
23681;DHT22;62915;50.832;4.462;2022-11-15T10:31:49;15.30;99.90
23681;DHT22;62915;50.832;4.462;2022-11-15T10:34:16;15.40;99.90
23681;DHT22;62915;50.832;4.462;2022-11-15T10:37:01;15.50;99.90
23681;DHT22;62915;50.832;4.462;2022-11-15T10:39:29;15.80;99.90
23681;DHT22;62915;50.832;4.462;2022-11-15T10:42:32;15.90;99.90
23681;DHT22;62915;50.832;4.462;2022-11-15T10:44:58;16.00;99.90
23681;DHT22;62915;50.832;4.462;2022-11-15T10:47:29;15.90;99.90
23681;DHT22;62915;50.832;4.462;2022-11-15T10:50:04;15.50;99.90
23681;DHT22;62915;50.832;4.462;2022-11-15T10:52:30;15.40;99.90
23681;DHT22;62915;50.832;4.462;2022-11-15T10:57:38;14.80;99.90
23681;DHT22;62915;50.832;4.462;2022-11-15T11:00:29;14.50;99.90
23681;DHT22;62915;50.832;4.462;2022-11-15T11:05:35;14.20;99.90
23681;DHT22;62915;50.832;4.462;2022-11-15T11:08:21;13.90;99.90
23681;DHT22;62915;50.832;4.462;2022-11-15T11:10:59;13.90;99.90
23681;DHT22;62915;50.832;4.462;2022-11-15T11:13:27;13.80;99.90
23681;DHT22;62915;50.832;4.462;2022-11-15T11:24:15;14.00;99.90
23681;DHT22;62915;50.832;4.462;2022-11-15T11:30:01;14.00;99.90
23681;DHT22;62915;50.832;4.462;2022-11-15T11:40:21;14.00;99.90
23681;DHT22;62915;50.832;4.462;2022-11-15T11:48:47;14.00;99.90
23681;DHT22;62915;50.832;4.462;2022-11-15T11:51:33;14.00;99.90
23681;DHT22;62915;50.832;4.462;2022-11-15T11:54:13;14.00;99.90
23681;DHT22;62915;50.832;4.462;2022-11-15T11:56:41;14.20;99.90
23681;DHT22;62915;50.832;4.462;2022-11-15T12:01:57;14.10;99.90
23681;DHT22;62915;50.832;4.462;2022-11-15T12:07:01;14.10;99.90
23681;DHT22;62915;50.832;4.462;2022-11-15T12:09:48;14.10;99.90
23681;DHT22;62915;50.832;4.462;2022-11-15T12:12:41;14.10;99.90
23681;DHT22;62915;50.832;4.462;2022-11-15T12:15:32;14.10;99.90
23681;DHT22;62915;50.832;4.462;2022-11-15T12:18:01;13.90;99.90
23681;DHT22;62915;50.832;4.462;2022-11-15T12:20:32;14.00;99.90
23681;DHT22;62915;50.832;4.462;2022-11-15T12:23:22;13.90;99.90
23681;DHT22;62915;50.832;4.462;2022-11-15T12:25:55;13.90;99.90
23681;DHT22;62915;50.832;4.462;2022-11-15T12:28:36;13.90;99.90
23681;DHT22;62915;50.832;4.462;2022-11-15T12:33:58;14.00;99.90
23681;DHT22;62915;50.832;4.462;2022-11-15T12:38:55;14.00;99.90
23681;DHT22;62915;50.832;4.462;2022-11-15T12:41:28;13.90;99.90
23681;DHT22;62915;50.832;4.462;2022-11-15T12:43:56;14.00;99.90
23681;DHT22;62915;50.832;4.462;2022-11-15T12:49:02;14.10;99.90
23681;DHT22;62915;50.832;4.462;2022-11-15T13:02:42;14.30;99.90
23681;DHT22;62915;50.832;4.462;2022-11-15T13:17:46;14.30;99.90
23681;DHT22;62915;50.832;4.462;2022-11-15T13:22:51;14.40;99.90
23681;DHT22;62915;50.832;4.462;2022-11-15T13:27:54;14.30;99.90
23681;DHT22;62915;50.832;4.462;2022-11-15T13:30:24;14.30;99.90
23681;DHT22;62915;50.832;4.462;2022-11-15T13:32:51;14.30;99.90
23681;DHT22;62915;50.832;4.462;2022-11-15T13:35:22;14.30;99.90
23681;DHT22;62915;50.832;4.462;2022-11-15T13:37:49;14.40;99.90
23681;DHT22;62915;50.832;4.462;2022-11-15T13:40:23;14.30;99.90
23681;DHT22;62915;50.832;4.462;2022-11-15T13:42:49;14.30;99.90
23681;DHT22;62915;50.832;4.462;2022-11-15T13:45:17;14.30;99.90
23681;DHT22;62915;50.832;4.462;2022-11-15T13:47:43;14.30;99.90
23681;DHT22;62915;50.832;4.462;2022-11-15T13:50:13;14.40;99.90
23681;DHT22;62915;50.832;4.462;2022-11-15T13:52:40;14.30;99.90
23681;DHT22;62915;50.832;4.462;2022-11-15T13:55:14;14.30;99.90
23681;DHT22;62915;50.832;4.462;2022-11-15T13:57:46;14.30;99.90
23681;DHT22;62915;50.832;4.462;2022-11-15T14:03:26;14.40;99.90
23681;DHT22;62915;50.832;4.462;2022-11-15T14:06:16;14.40;99.90
23681;DHT22;62915;50.832;4.462;2022-11-15T14:11:37;14.40;99.90
23681;DHT22;62915;50.832;4.462;2022-11-15T14:14:14;14.40;99.90
23681;DHT22;62915;50.832;4.462;2022-11-15T14:16:44;14.40;99.90
23681;DHT22;62915;50.832;4.462;2022-11-15T14:22:19;14.40;99.90
23681;DHT22;62915;50.832;4.462;2022-11-15T14:30:40;14.20;99.90
23681;DHT22;62915;50.832;4.462;2022-11-15T14:33:20;14.20;99.90
23681;DHT22;62915;50.832;4.462;2022-11-15T14:35:46;14.20;99.90
23681;DHT22;62915;50.832;4.462;2022-11-15T14:38:12;14.20;99.90
23681;DHT22;62915;50.832;4.462;2022-11-15T14:40:38;14.10;99.90
23681;DHT22;62915;50.832;4.462;2022-11-15T14:43:04;14.10;99.90
23681;DHT22;62915;50.832;4.462;2022-11-15T14:45:30;14.20;99.90
23681;DHT22;62915;50.832;4.462;2022-11-15T14:47:55;14.20;99.90
23681;DHT22;62915;50.832;4.462;2022-11-15T14:50:21;14.20;99.90
23681;DHT22;62915;50.832;4.462;2022-11-15T14:52:48;14.20;99.90
23681;DHT22;62915;50.832;4.462;2022-11-15T14:55:28;14.10;99.90
23681;DHT22;62915;50.832;4.462;2022-11-15T14:57:57;14.10;99.90
23681;DHT22;62915;50.832;4.462;2022-11-15T15:00:24;14.10;99.90
23681;DHT22;62915;50.832;4.462;2022-11-15T15:02:52;14.00;99.90
23681;DHT22;62915;50.832;4.462;2022-11-15T15:05:22;14.10;99.90
23681;DHT22;62915;50.832;4.462;2022-11-15T15:07:49;14.00;99.90
23681;DHT22;62915;50.832;4.462;2022-11-15T15:10:16;14.20;99.90
23681;DHT22;62915;50.832;4.462;2022-11-15T15:12:42;14.10;99.90
23681;DHT22;62915;50.832;4.462;2022-11-15T15:15:29;13.90;99.90
23681;DHT22;62915;50.832;4.462;2022-11-15T15:17:55;13.90;99.90
23681;DHT22;62915;50.832;4.462;2022-11-15T15:20:21;13.90;99.90
23681;DHT22;62915;50.832;4.462;2022-11-15T15:22:46;13.90;99.90
23681;DHT22;62915;50.832;4.462;2022-11-15T15:25:30;13.80;99.90
23681;DHT22;62915;50.832;4.462;2022-11-15T15:27:57;13.70;99.90
23681;DHT22;62915;50.832;4.462;2022-11-15T15:30:24;13.70;99.90
23681;DHT22;62915;50.832;4.462;2022-11-15T15:32:50;13.70;99.90
23681;DHT22;62915;50.832;4.462;2022-11-15T15:35:16;13.70;99.90
23681;DHT22;62915;50.832;4.462;2022-11-15T15:37:43;13.70;99.90
23681;DHT22;62915;50.832;4.462;2022-11-15T15:40:18;13.70;99.90
23681;DHT22;62915;50.832;4.462;2022-11-15T15:42:45;13.60;99.90
23681;DHT22;62915;50.832;4.462;2022-11-15T15:45:11;13.70;99.90
23681;DHT22;62915;50.832;4.462;2022-11-15T15:47:37;13.70;99.90
23681;DHT22;62915;50.832;4.462;2022-11-15T15:50:03;13.60;99.90
23681;DHT22;62915;50.832;4.462;2022-11-15T15:52:29;13.60;99.90
23681;DHT22;62915;50.832;4.462;2022-11-15T15:54:55;13.70;99.90
23681;DHT22;62915;50.832;4.462;2022-11-15T15:57:22;13.60;99.90
23681;DHT22;62915;50.832;4.462;2022-11-15T15:59:48;13.60;99.90
23681;DHT22;62915;50.832;4.462;2022-11-15T16:02:14;13.60;99.90
23681;DHT22;62915;50.832;4.462;2022-11-15T16:04:40;13.60;99.90
23681;DHT22;62915;50.832;4.462;2022-11-15T16:07:07;13.60;99.90
23681;DHT22;62915;50.832;4.462;2022-11-15T16:09:37;13.50;99.90
23681;DHT22;62915;50.832;4.462;2022-11-15T16:12:21;13.60;99.90
23681;DHT22;62915;50.832;4.462;2022-11-15T16:14:47;13.50;99.90
23681;DHT22;62915;50.832;4.462;2022-11-15T16:17:21;13.40;99.90
23681;DHT22;62915;50.832;4.462;2022-11-15T16:19:48;13.50;99.90
23681;DHT22;62915;50.832;4.462;2022-11-15T16:22:13;13.40;99.90
23681;DHT22;62915;50.832;4.462;2022-11-15T16:24:39;13.50;99.90
23681;DHT22;62915;50.832;4.462;2022-11-15T16:27:05;13.50;99.90
23681;DHT22;62915;50.832;4.462;2022-11-15T16:29:30;13.40;99.90
23681;DHT22;62915;50.832;4.462;2022-11-15T16:31:56;13.40;99.90
23681;DHT22;62915;50.832;4.462;2022-11-15T16:34:22;13.50;99.90
23681;DHT22;62915;50.832;4.462;2022-11-15T16:36:50;13.50;99.90
23681;DHT22;62915;50.832;4.462;2022-11-15T16:39:16;13.50;99.90
23681;DHT22;62915;50.832;4.462;2022-11-15T16:41:44;13.40;99.90
23681;DHT22;62915;50.832;4.462;2022-11-15T16:44:12;13.30;99.90
23681;DHT22;62915;50.832;4.462;2022-11-15T16:46:41;13.30;99.90
23681;DHT22;62915;50.832;4.462;2022-11-15T16:49:13;13.30;99.90
23681;DHT22;62915;50.832;4.462;2022-11-15T16:51:40;13.40;99.90
23681;DHT22;62915;50.832;4.462;2022-11-15T16:54:06;13.50;99.90
23681;DHT22;62915;50.832;4.462;2022-11-15T16:56:33;13.50;99.90
23681;DHT22;62915;50.832;4.462;2022-11-15T16:59:00;13.50;99.90
23681;DHT22;62915;50.832;4.462;2022-11-15T17:01:29;13.50;99.90
23681;DHT22;62915;50.832;4.462;2022-11-15T17:03:55;13.50;99.90
23681;DHT22;62915;50.832;4.462;2022-11-15T17:06:22;13.40;99.90
23681;DHT22;62915;50.832;4.462;2022-11-15T17:08:48;13.40;99.90
23681;DHT22;62915;50.832;4.462;2022-11-15T17:11:16;13.40;99.90
23681;DHT22;62915;50.832;4.462;2022-11-15T17:13:43;13.40;99.90
23681;DHT22;62915;50.832;4.462;2022-11-15T17:16:12;13.40;99.90
23681;DHT22;62915;50.832;4.462;2022-11-15T17:18:38;13.40;99.90
23681;DHT22;62915;50.832;4.462;2022-11-15T17:21:11;13.40;99.90
23681;DHT22;62915;50.832;4.462;2022-11-15T17:23:37;13.40;99.90
23681;DHT22;62915;50.832;4.462;2022-11-15T17:26:05;13.40;99.90
23681;DHT22;62915;50.832;4.462;2022-11-15T17:28:32;13.30;99.90
23681;DHT22;62915;50.832;4.462;2022-11-15T17:30:59;13.30;99.90
23681;DHT22;62915;50.832;4.462;2022-11-15T17:33:25;13.30;99.90
23681;DHT22;62915;50.832;4.462;2022-11-15T17:35:59;13.30;99.90
23681;DHT22;62915;50.832;4.462;2022-11-15T17:38:26;13.40;99.90
23681;DHT22;62915;50.832;4.462;2022-11-15T17:41:14;13.40;99.90
23681;DHT22;62915;50.832;4.462;2022-11-15T17:43:40;13.40;99.90
23681;DHT22;62915;50.832;4.462;2022-11-15T17:46:18;13.40;99.90
23681;DHT22;62915;50.832;4.462;2022-11-15T17:48:45;13.40;99.90
23681;DHT22;62915;50.832;4.462;2022-11-15T17:51:14;13.40;99.90
23681;DHT22;62915;50.832;4.462;2022-11-15T17:53:45;13.40;99.90
23681;DHT22;62915;50.832;4.462;2022-11-15T17:56:17;13.30;99.90
23681;DHT22;62915;50.832;4.462;2022-11-15T17:58:51;13.30;99.90
23681;DHT22;62915;50.832;4.462;2022-11-15T18:03:48;13.30;99.90
23681;DHT22;62915;50.832;4.462;2022-11-15T18:06:14;13.40;99.90
23681;DHT22;62915;50.832;4.462;2022-11-15T18:08:42;13.40;99.90
23681;DHT22;62915;50.832;4.462;2022-11-15T18:11:16;13.40;99.90